Time;durP1;ratioP1;P1;durP2;ratioP2;P2;SDS_P1;SDS_P2;PMS_P1;PMS_P2;Temp;Humidity;BMP_temperature;BMP_pressure;BME280_temperature;BME280_humidity;BME280_pressure;Samples;Min_cycle;Max_cycle;Signal;HPM_P1;HPM_P2
2023/06/09 00:00:11;;;;;;;10.63;4.85;;;;;;;15.84;75.95;101312.56;5093521;28;20107;-46
2023/06/09 00:02:37;;;;;;;12.43;5.00;;;;;;;15.78;76.36;101305.50;5093057;28;20054;-44
2023/06/09 00:05:02;;;;;;;13.65;4.97;;;;;;;15.74;76.65;101308.91;5092191;28;20388;-42
2023/06/09 00:07:29;;;;;;;9.65;4.45;;;;;;;15.73;76.06;101314.94;5093349;28;20103;-44
2023/06/09 00:09:54;;;;;;;10.57;4.43;;;;;;;15.72;75.74;101305.41;5093532;28;20024;-47
2023/06/09 00:12:20;;;;;;;11.07;4.75;;;;;;;15.71;75.33;101311.47;5092304;28;20081;-46
2023/06/09 00:14:45;;;;;;;12.48;5.45;;;;;;;15.72;75.44;101305.41;5093380;28;20032;-42
2023/06/09 00:17:10;;;;;;;12.43;4.55;;;;;;;15.66;75.88;101305.31;5093247;28;20024;-44
2023/06/09 00:19:37;;;;;;;11.25;5.15;;;;;;;15.62;75.82;101299.19;5092479;28;20024;-44
2023/06/09 00:22:02;;;;;;;11.85;5.00;;;;;;;15.58;75.78;101302.59;5093078;28;20494;-42
2023/06/09 00:24:28;;;;;;;11.10;4.90;;;;;;;15.52;76.56;101301.59;5092749;28;20021;-45
2023/06/09 00:26:53;;;;;;;10.43;4.90;;;;;;;15.46;76.70;101303.25;5092587;28;20051;-42
2023/06/09 00:29:22;;;;;;;12.13;5.13;;;;;;;15.38;76.88;101302.25;5092849;28;20027;-43
2023/06/09 00:31:47;;;;;;;10.88;5.18;;;;;;;15.38;76.41;101299.66;5092802;28;20452;-43
2023/06/09 00:34:13;;;;;;;9.35;5.10;;;;;;;15.26;77.53;101299.44;5092816;28;20028;-42
2023/06/09 00:36:40;;;;;;;14.63;5.50;;;;;;;15.18;78.05;101301.91;5092975;28;20028;-46
2023/06/09 00:39:05;;;;;;;11.82;5.47;;;;;;;15.11;78.11;101300.91;5092857;28;20070;-42
2023/06/09 00:41:35;;;;;;;10.65;5.43;;;;;;;15.17;78.00;101302.78;5092270;28;20028;-45
2023/06/09 00:44:01;;;;;;;10.93;5.15;;;;;;;15.08;78.06;101298.28;5092818;28;20418;-45
2023/06/09 00:46:26;;;;;;;11.18;4.97;;;;;;;15.10;77.89;101291.38;5092112;28;20460;-42
2023/06/09 00:48:51;;;;;;;10.07;5.00;;;;;;;15.02;78.67;101303.34;5093010;28;20028;-42
2023/06/09 00:51:17;;;;;;;12.07;5.32;;;;;;;14.98;78.90;101296.34;5092686;28;20051;-42
2023/06/09 00:53:42;;;;;;;11.20;5.57;;;;;;;14.94;79.29;101300.59;5092088;28;20024;-45
2023/06/09 00:56:08;;;;;;;14.43;5.38;;;;;;;14.96;78.64;101291.16;5093046;28;20038;-44
2023/06/09 00:58:34;;;;;;;14.40;5.05;;;;;;;14.88;79.18;101299.63;5092606;28;20056;-43
2023/06/09 01:00:59;;;;;;;13.38;5.97;;;;;;;14.82;79.35;101298.66;5092024;28;20084;-44
2023/06/09 01:03:26;;;;;;;14.40;5.32;;;;;;;14.77;79.77;101297.69;5092581;28;20040;-42
2023/06/09 01:06:02;;;;;;;10.95;5.55;;;;;;;14.71;80.31;101297.56;5092768;28;20463;-42
2023/06/09 01:08:36;;;;;;;14.80;6.30;;;;;;;14.61;80.98;101293.00;5091861;28;20031;-42
2023/06/09 01:11:22;;;;;;;11.35;5.75;;;;;;;14.61;80.40;101293.00;5092704;28;20547;-43
2023/06/09 01:14:10;;;;;;;13.15;5.50;;;;;;;14.59;80.64;101289.50;5092335;28;20425;-45
2023/06/09 01:16:44;;;;;;;11.48;5.45;;;;;;;14.51;81.39;101293.66;5095803;28;20593;-47
2023/06/09 01:19:24;;;;;;;12.80;5.47;;;;;;;14.47;81.83;101285.84;5096699;28;20039;-44
2023/06/09 01:21:53;;;;;;;11.85;5.53;;;;;;;14.35;82.74;101287.28;5095592;28;20055;-47
2023/06/09 01:24:47;;;;;;;13.70;5.35;;;;;;;14.29;82.65;101286.31;5096304;28;20475;-47
2023/06/09 01:27:16;;;;;;;15.13;5.93;;;;;;;14.12;84.04;101285.94;5096510;28;20020;-48
2023/06/09 01:29:43;;;;;;;10.85;5.45;;;;;;;14.03;84.66;101287.47;5095656;28;20406;-48
2023/06/09 01:32:10;;;;;;;13.93;6.18;;;;;;;13.97;85.38;101286.47;5096345;28;20126;-48
2023/06/09 01:34:35;;;;;;;12.40;6.25;;;;;;;13.88;86.07;101288.88;5095842;28;20761;-47
2023/06/09 01:37:01;;;;;;;11.43;6.13;;;;;;;13.83;86.45;101287.88;5095902;28;20028;-45
2023/06/09 01:39:27;;;;;;;10.80;5.75;;;;;;;13.75;87.28;101282.53;5096005;28;20035;-47
2023/06/09 01:41:52;;;;;;;12.43;5.45;;;;;;;13.71;87.58;101279.81;5095931;28;20024;-47
2023/06/09 01:44:18;;;;;;;12.77;6.28;;;;;;;13.66;87.61;101275.41;5095153;28;20456;-45
2023/06/09 01:46:43;;;;;;;12.45;6.05;;;;;;;13.60;88.29;101272.66;5096099;28;20460;-47
2023/06/09 01:49:16;;;;;;;23.48;6.32;;;;;;;13.59;88.45;101280.41;5095954;28;20482;-43
2023/06/09 01:51:50;;;;;;;11.68;5.93;;;;;;;13.48;89.22;101278.44;5095695;28;20035;-44
2023/06/09 01:54:34;;;;;;;11.25;5.85;;;;;;;13.46;89.46;101280.09;5095742;28;20016;-42
2023/06/09 01:57:17;;;;;;;17.15;6.60;;;;;;;13.42;89.60;101274.81;5095194;28;20024;-47
2023/06/09 01:59:55;;;;;;;14.90;6.78;;;;;;;13.34;90.18;101280.63;5096073;28;20034;-46
2023/06/09 02:02:25;;;;;;;17.02;6.75;;;;;;;13.31;90.63;101284.84;5095411;28;20032;-47
2023/06/09 02:04:53;;;;;;;14.52;6.45;;;;;;;13.29;90.17;101276.19;5095217;28;20112;-46
2023/06/09 02:07:19;;;;;;;16.65;6.10;;;;;;;13.23;90.76;101274.31;5095454;28;20024;-46
2023/06/09 02:09:45;;;;;;;13.25;6.60;;;;;;;13.17;91.16;101277.63;5095875;28;20028;-45
2023/06/09 02:12:11;;;;;;;13.93;6.65;;;;;;;13.26;90.65;101271.81;5095232;28;20035;-47
2023/06/09 02:14:36;;;;;;;12.80;6.45;;;;;;;13.18;91.18;101260.38;5095338;28;20028;-46
2023/06/09 02:17:05;;;;;;;15.23;6.70;;;;;;;13.10;92.08;101260.16;5095369;28;20020;-47
2023/06/09 02:19:35;;;;;;;12.80;6.50;;;;;;;13.08;92.25;101256.69;5094754;28;20073;-47
2023/06/09 02:22:01;;;;;;;11.70;6.20;;;;;;;13.02;92.73;101256.53;5095517;28;20604;-45
2023/06/09 02:24:28;;;;;;;12.93;6.35;;;;;;;12.96;92.65;101256.34;5094925;28;20024;-48
2023/06/09 02:26:54;;;;;;;14.20;7.07;;;;;;;12.93;93.16;101262.31;5093891;28;20031;-48
2023/06/09 02:29:20;;;;;;;13.98;6.80;;;;;;;12.92;93.71;101259.69;5095030;28;20126;-46
2023/06/09 02:31:45;;;;;;;12.95;7.18;;;;;;;12.85;93.97;101259.53;5094479;28;20028;-46
2023/06/09 02:34:11;;;;;;;17.58;6.47;;;;;;;12.81;94.47;101259.44;5095119;28;20031;-48
2023/06/09 02:36:37;;;;;;;14.52;6.60;;;;;;;12.77;94.84;101247.22;5094813;28;20036;-46
2023/06/09 02:39:03;;;;;;;17.73;6.75;;;;;;;12.69;95.82;101257.34;5094574;28;20098;-46
2023/06/09 02:41:28;;;;;;;13.10;6.70;;;;;;;12.68;95.75;101259.09;5094872;28;20038;-44
2023/06/09 02:43:54;;;;;;;13.98;6.97;;;;;;;12.67;95.98;101256.47;5095091;28;20024;-47
2023/06/09 02:46:23;;;;;;;14.48;6.80;;;;;;;12.62;96.42;101255.47;5093800;28;20028;-46
2023/06/09 02:48:49;;;;;;;16.33;7.15;;;;;;;12.57;96.57;101251.88;5094852;28;20436;-46
2023/06/09 02:51:14;;;;;;;15.40;7.10;;;;;;;12.55;97.06;101253.53;5095160;28;20055;-47
2023/06/09 02:53:39;;;;;;;17.05;6.85;;;;;;;12.55;97.08;101256.09;5093929;28;20028;-47
2023/06/09 02:56:05;;;;;;;15.95;7.25;;;;;;;12.50;97.50;101261.16;5094918;28;20027;-46
2023/06/09 02:58:30;;;;;;;13.35;6.60;;;;;;;12.47;97.68;101259.38;5094348;28;20028;-47
2023/06/09 03:00:55;;;;;;;17.50;7.78;;;;;;;12.48;97.61;101257.66;5093930;28;20023;-46
2023/06/09 03:03:21;;;;;;;15.32;7.57;;;;;;;12.54;97.50;101251.75;5094170;28;20036;-46
2023/06/09 03:05:46;;;;;;;13.98;7.60;;;;;;;12.49;97.79;101259.41;5094369;28;20028;-48
2023/06/09 03:08:11;;;;;;;13.05;7.05;;;;;;;12.47;98.07;101255.88;5094198;28;20051;-46
2023/06/09 03:10:37;;;;;;;15.25;7.13;;;;;;;12.49;98.02;101252.50;5094392;28;20464;-47
2023/06/09 03:13:02;;;;;;;14.02;7.72;;;;;;;12.47;97.86;101248.13;5094304;28;20024;-45
2023/06/09 03:15:28;;;;;;;13.20;7.40;;;;;;;12.50;97.52;101262.03;5093601;28;20535;-46
2023/06/09 03:17:53;;;;;;;17.33;7.20;;;;;;;12.55;97.44;101275.09;5094245;28;20027;-45
2023/06/09 03:20:19;;;;;;;13.95;6.82;;;;;;;12.47;97.99;101259.38;5093477;28;20032;-47
2023/06/09 03:22:45;;;;;;;16.15;7.38;;;;;;;12.47;98.22;101261.06;5093760;28;20048;-46
2023/06/09 03:25:11;;;;;;;12.70;7.13;;;;;;;12.47;98.10;101267.13;5094374;28;20039;-45
2023/06/09 03:27:37;;;;;;;13.73;7.22;;;;;;;12.45;98.35;101267.91;5093761;28;20024;-46
2023/06/09 03:30:03;;;;;;;15.73;6.72;;;;;;;12.39;98.91;101266.00;5093710;28;20028;-47
2023/06/09 03:32:28;;;;;;;16.60;7.13;;;;;;;12.42;98.67;101260.94;5093943;28;20031;-46
2023/06/09 03:34:54;;;;;;;19.17;7.47;;;;;;;12.40;99.06;101265.19;5093803;28;20184;-47
2023/06/09 03:37:19;;;;;;;18.50;7.93;;;;;;;12.37;98.97;101265.09;5093221;28;20418;-47
2023/06/09 03:39:45;;;;;;;14.25;7.70;;;;;;;12.36;99.30;101258.19;5094074;28;20429;-47
2023/06/09 03:42:10;;;;;;;13.23;7.20;;;;;;;12.38;99.34;101261.66;5093167;28;20028;-47
2023/06/09 03:44:35;;;;;;;14.57;7.15;;;;;;;12.39;99.36;101263.44;5093553;28;20437;-46
2023/06/09 03:47:00;;;;;;;15.02;7.35;;;;;;;12.47;98.68;101263.66;5093751;28;20107;-46
2023/06/09 03:49:26;;;;;;;15.45;6.93;;;;;;;12.45;99.02;101276.53;5092748;28;20429;-48
2023/06/09 03:51:51;;;;;;;16.90;7.47;;;;;;;12.51;98.40;101279.31;5093560;28;20028;-47
2023/06/09 03:54:16;;;;;;;16.27;7.85;;;;;;;12.56;98.13;101292.34;5093625;28;20024;-46
2023/06/09 03:56:42;;;;;;;17.35;7.30;;;;;;;12.56;97.93;101282.00;5092998;28;20418;-45
2023/06/09 03:59:07;;;;;;;17.02;7.50;;;;;;;12.57;98.56;101282.91;5093639;28;20116;-46
2023/06/09 04:01:33;;;;;;;13.13;6.93;;;;;;;12.51;99.37;101279.31;5093201;28;20030;-46
2023/06/09 04:03:58;;;;;;;17.02;7.57;;;;;;;12.54;99.36;101281.09;5092743;28;20028;-45
2023/06/09 04:06:23;;;;;;;18.10;7.47;;;;;;;12.51;99.48;101284.47;5093490;28;20055;-46
2023/06/09 04:08:49;;;;;;;12.20;6.93;;;;;;;12.51;99.97;101283.56;5093390;28;20111;-47
2023/06/09 04:11:14;;;;;;;13.65;7.13;;;;;;;12.52;100.00;101280.16;5092971;28;20425;-45
2023/06/09 04:13:39;;;;;;;13.57;6.97;;;;;;;12.54;100.00;101277.63;5093098;28;20028;-47
2023/06/09 04:16:05;;;;;;;17.63;8.13;;;;;;;12.56;100.00;101283.72;5093219;28;20039;-47
2023/06/09 04:18:31;;;;;;;15.25;7.75;;;;;;;12.67;98.55;101290.06;5092298;28;20063;-44
2023/06/09 04:20:56;;;;;;;18.70;8.27;;;;;;;12.69;98.75;101285.81;5093150;28;20070;-46
2023/06/09 04:23:21;;;;;;;14.55;7.22;;;;;;;12.80;98.58;101289.56;5092664;28;20145;-46
2023/06/09 04:25:47;;;;;;;15.32;7.80;;;;;;;12.91;98.37;101289.00;5092802;28;20025;-46
2023/06/09 04:28:12;;;;;;;16.17;7.32;;;;;;;12.91;97.64;101286.41;5093274;28;20417;-46
2023/06/09 04:30:38;;;;;;;14.02;6.97;;;;;;;12.98;97.13;101296.09;5092639;28;20103;-46
2023/06/09 04:33:04;;;;;;;16.75;7.63;;;;;;;13.05;96.99;101290.22;5092536;28;20188;-45
2023/06/09 04:35:30;;;;;;;16.20;7.32;;;;;;;13.18;96.28;101296.59;5093014;28;20107;-46
2023/06/09 04:38:00;;;;;;;15.57;6.70;;;;;;;13.25;96.21;101305.44;5092850;28;20031;-46
2023/06/09 04:40:25;;;;;;;17.92;7.72;;;;;;;13.37;95.36;101291.94;5092422;28;20024;-47
2023/06/09 04:42:58;;;;;;;13.07;7.45;;;;;;;13.43;94.98;101294.69;5093103;28;20089;-46
2023/06/09 04:45:34;;;;;;;18.23;7.85;;;;;;;13.47;94.67;101294.78;5091923;28;20031;-47
2023/06/09 04:48:02;;;;;;;16.83;7.90;;;;;;;13.54;95.30;101305.31;5092852;28;20501;-47
2023/06/09 04:50:36;;;;;;;18.92;8.13;;;;;;;13.62;94.73;101301.19;5097017;28;20464;-46
2023/06/09 04:53:07;;;;;;;15.40;7.57;;;;;;;13.72;93.80;101297.97;5098993;28;20026;-47
2023/06/09 04:55:33;;;;;;;14.32;7.68;;;;;;;13.75;94.24;101297.19;5099577;28;20016;-48
2023/06/09 04:57:59;;;;;;;18.48;7.22;;;;;;;13.87;93.77;101297.47;5099487;28;20055;-46
2023/06/09 05:00:28;;;;;;;17.67;8.10;;;;;;;13.92;93.56;101305.38;5098931;28;20048;-46
2023/06/09 05:02:57;;;;;;;17.48;7.88;;;;;;;14.00;94.13;101304.69;5099588;28;20119;-46
2023/06/09 05:05:22;;;;;;;17.02;8.65;;;;;;;14.07;94.38;101307.41;5099025;28;20081;-47
2023/06/09 05:07:47;;;;;;;15.07;7.90;;;;;;;14.16;93.92;101300.75;5098847;28;20421;-44
2023/06/09 05:10:13;;;;;;;18.08;8.15;;;;;;;14.19;92.88;101305.13;5099507;28;20028;-48
2023/06/09 05:12:39;;;;;;;18.10;7.85;;;;;;;14.29;93.35;101300.97;5098866;28;20026;-46
2023/06/09 05:15:04;;;;;;;16.92;8.18;;;;;;;14.36;93.14;101300.28;5099153;28;20032;-47
2023/06/09 05:17:33;;;;;;;15.85;8.25;;;;;;;14.44;92.50;101296.13;5099196;28;20111;-45
2023/06/09 05:19:58;;;;;;;15.02;8.00;;;;;;;14.52;92.76;101298.00;5099184;28;20040;-48
2023/06/09 05:22:24;;;;;;;16.45;7.93;;;;;;;14.59;92.60;101294.69;5098591;28;20028;-46
2023/06/09 05:24:49;;;;;;;13.45;8.20;;;;;;;14.67;92.21;101300.06;5099340;28;20020;-47
2023/06/09 05:27:14;;;;;;;15.15;8.20;;;;;;;14.74;91.22;101300.22;5099083;28;20031;-47
2023/06/09 05:29:40;;;;;;;20.60;8.38;;;;;;;14.78;91.26;101304.66;5098630;28;20020;-47
2023/06/09 05:32:06;;;;;;;17.05;8.38;;;;;;;14.92;91.81;101309.22;5099448;28;20031;-48
2023/06/09 05:34:31;;;;;;;17.30;8.80;;;;;;;14.94;90.31;101310.13;5098549;28;20616;-47
2023/06/09 05:36:57;;;;;;;17.17;8.25;;;;;;;15.04;90.33;101306.84;5099173;28;20027;-47
2023/06/09 05:39:22;;;;;;;14.70;8.60;;;;;;;15.10;90.09;101306.94;5099090;28;20065;-46
2023/06/09 05:41:47;;;;;;;18.48;8.77;;;;;;;15.17;90.49;101318.34;5098337;28;20024;-45
2023/06/09 05:44:12;;;;;;;19.70;9.80;;;;;;;15.26;90.50;101307.22;5099091;28;20080;-47
2023/06/09 05:46:38;;;;;;;15.50;8.52;;;;;;;15.31;90.52;101308.19;5098850;28;20055;-48
2023/06/09 05:49:03;;;;;;;19.70;9.23;;;;;;;15.40;90.04;101308.38;5098508;28;20099;-47
2023/06/09 05:51:29;;;;;;;17.73;9.45;;;;;;;15.44;89.63;101304.97;5098834;28;20043;-45
2023/06/09 05:53:54;;;;;;;18.83;9.20;;;;;;;15.54;89.46;101305.09;5099164;28;20032;-48
2023/06/09 05:56:19;;;;;;;18.63;9.50;;;;;;;15.63;90.28;101300.94;5097983;28;20372;-44
2023/06/09 05:58:45;;;;;;;19.50;9.27;;;;;;;15.71;89.66;101303.66;5099115;28;20028;-45
2023/06/09 06:01:12;;;;;;;16.08;9.77;;;;;;;15.76;89.32;101307.22;5097635;28;20459;-47
2023/06/09 06:03:38;;;;;;;15.43;9.35;;;;;;;15.86;89.63;101307.38;5095253;28;20024;-46
2023/06/09 06:06:04;;;;;;;20.77;9.35;;;;;;;15.95;90.04;101302.31;5095870;28;20024;-45
2023/06/09 06:08:29;;;;;;;19.80;10.15;;;;;;;16.06;89.33;101302.47;5095158;28;20026;-46
2023/06/09 06:10:55;;;;;;;21.83;10.02;;;;;;;16.15;88.52;101304.31;5095018;28;20032;-46
2023/06/09 06:13:20;;;;;;;22.35;9.90;;;;;;;16.23;88.05;101305.28;5095530;28;20024;-45
2023/06/09 06:15:45;;;;;;;17.30;10.07;;;;;;;16.31;88.61;101303.69;5095392;28;20028;-47
2023/06/09 06:18:11;;;;;;;18.88;10.95;;;;;;;16.43;88.90;101301.22;5095197;28;20375;-45
2023/06/09 06:20:36;;;;;;;17.52;9.63;;;;;;;16.50;87.78;101301.31;5095045;28;20044;-47
2023/06/09 06:23:02;;;;;;;21.48;10.98;;;;;;;16.62;86.67;101309.28;5095115;28;20032;-46
2023/06/09 06:25:28;;;;;;;19.40;9.48;;;;;;;16.72;88.27;101303.31;5094536;28;20020;-47
2023/06/09 06:27:55;;;;;;;17.98;10.43;;;;;;;16.73;86.17;101305.06;5095543;28;20099;-46
2023/06/09 06:30:20;;;;;;;19.98;10.18;;;;;;;16.82;85.89;101308.63;5094716;28;20364;-46
2023/06/09 06:32:52;;;;;;;18.52;10.38;;;;;;;16.93;86.07;101313.13;5094830;28;20027;-43
2023/06/09 06:35:28;;;;;;;19.20;10.35;;;;;;;17.05;85.25;101308.91;5094856;28;20082;-47
2023/06/09 06:37:55;;;;;;;19.77;11.18;;;;;;;17.20;85.96;101313.41;5094390;28;20024;-43
2023/06/09 06:40:21;;;;;;;20.70;11.20;;;;;;;17.25;84.66;101316.94;5094818;28;20057;-47
2023/06/09 06:42:46;;;;;;;17.90;10.32;;;;;;;17.35;84.55;101318.75;5094927;28;20535;-46
2023/06/09 06:45:12;;;;;;;17.70;10.38;;;;;;;17.50;84.06;101315.41;5094397;28;20150;-45
2023/06/09 06:47:37;;;;;;;16.25;11.20;;;;;;;17.55;83.90;101308.50;5094826;28;20031;-45
2023/06/09 06:50:04;;;;;;;19.08;10.40;;;;;;;17.65;83.36;101308.56;5094989;28;20380;-49
2023/06/09 06:52:29;;;;;;;19.83;11.23;;;;;;;17.71;81.95;101306.00;5093723;28;20460;-48
2023/06/09 06:54:55;;;;;;;19.98;11.40;;;;;;;17.85;82.67;101311.31;5094692;28;20020;-47
2023/06/09 06:57:21;;;;;;;29.65;12.45;;;;;;;17.96;82.95;101304.50;5094419;28;20040;-47
2023/06/09 06:59:46;;;;;;;19.63;11.10;;;;;;;18.04;82.29;101304.53;5094248;28;20125;-47
2023/06/09 07:02:11;;;;;;;19.08;11.18;;;;;;;18.21;82.19;101304.63;5094852;28;20028;-48
2023/06/09 07:04:36;;;;;;;21.77;11.80;;;;;;;18.38;81.65;101305.56;5094146;28;20115;-47
2023/06/09 07:07:02;;;;;;;18.55;10.98;;;;;;;18.49;82.25;101302.13;5094070;28;20024;-48
2023/06/09 07:09:28;;;;;;;27.15;11.25;;;;;;;18.60;80.79;101310.88;5094115;28;20495;-47
2023/06/09 07:11:53;;;;;;;20.20;11.30;;;;;;;18.73;79.80;101304.84;5094321;28;20028;-46
2023/06/09 07:14:18;;;;;;;18.17;10.35;;;;;;;18.84;79.70;101314.47;5093255;28;20472;-48
2023/06/09 07:16:44;;;;;;;21.75;11.55;;;;;;;18.98;80.65;101312.78;5094304;28;20028;-47
2023/06/09 07:19:10;;;;;;;19.13;10.93;;;;;;;19.10;79.72;101308.44;5094155;28;20055;-46
2023/06/09 07:21:35;;;;;;;18.67;12.07;;;;;;;19.15;78.87;101310.19;5093197;28;20048;-48
2023/06/09 07:24:01;;;;;;;20.10;12.55;;;;;;;19.26;78.83;101310.19;5094436;28;20020;-49
2023/06/09 07:26:26;;;;;;;20.60;11.32;;;;;;;19.32;77.94;101310.19;5093844;28;20036;-47
2023/06/09 07:28:52;;;;;;;19.38;11.82;;;;;;;19.38;77.20;101314.56;5093750;28;20020;-47
2023/06/09 07:31:17;;;;;;;22.80;12.02;;;;;;;19.50;75.95;101316.31;5093683;28;20111;-49
2023/06/09 07:33:43;;;;;;;17.30;11.85;;;;;;;19.57;76.29;101310.19;5093926;28;20077;-49
2023/06/09 07:36:11;;;;;;;19.73;11.88;;;;;;;19.74;76.89;101313.69;5093522;28;20065;-47
2023/06/09 07:38:42;;;;;;;17.50;11.73;;;;;;;19.80;74.36;101317.16;5093527;28;20036;-49
2023/06/09 07:41:08;;;;;;;18.77;11.55;;;;;;;19.97;75.19;101320.66;5093583;28;20081;-45
2023/06/09 07:43:33;;;;;;;18.60;12.05;;;;;;;20.04;74.50;101317.16;5094010;28;20028;-50
2023/06/09 07:45:58;;;;;;;20.08;11.45;;;;;;;20.17;73.47;101317.13;5094007;28;20443;-50
2023/06/09 07:48:24;;;;;;;17.35;11.82;;;;;;;20.21;71.58;101314.50;5092541;28;20028;-47
2023/06/09 07:50:50;;;;;;;25.73;12.40;;;;;;;20.24;72.82;101318.84;5093689;28;20069;-49
2023/06/09 07:53:15;;;;;;;21.10;12.98;;;;;;;20.48;72.98;101310.03;5093219;28;20028;-45
2023/06/09 07:55:40;;;;;;;17.42;12.00;;;;;;;20.56;71.95;101310.00;5093051;28;20020;-50
2023/06/09 07:58:05;;;;;;;25.98;12.32;;;;;;;20.70;71.35;101308.22;5093678;28;20052;-50
2023/06/09 08:00:31;;;;;;;21.85;12.73;;;;;;;20.94;72.85;101308.09;5093161;28;20023;-49
2023/06/09 08:03:02;;;;;;;18.38;11.98;;;;;;;21.08;71.54;101302.78;5092912;28;20387;-43
2023/06/09 08:05:27;;;;;;;17.90;11.40;;;;;;;21.29;70.19;101301.72;5093278;28;20027;-49
2023/06/09 08:07:52;;;;;;;20.88;13.13;;;;;;;21.36;68.58;101301.66;5093161;28;20413;-49
2023/06/09 08:10:18;;;;;;;19.15;12.05;;;;;;;21.49;68.64;101304.19;5092600;28;20047;-51
2023/06/09 08:12:43;;;;;;;15.23;11.55;;;;;;;21.53;66.55;101300.66;5093423;28;20028;-45
2023/06/09 08:15:08;;;;;;;17.00;11.02;;;;;;;21.67;67.13;101304.06;5093218;28;20028;-47
2023/06/09 08:17:34;;;;;;;18.63;11.80;;;;;;;21.68;65.39;101297.09;5092340;28;20379;-46
2023/06/09 08:19:59;;;;;;;16.13;10.77;;;;;;;21.87;65.60;101301.25;5093065;28;20044;-45
2023/06/09 08:22:25;;;;;;;19.80;11.43;;;;;;;21.98;65.88;101303.75;5092591;28;20032;-49
2023/06/09 08:24:50;;;;;;;15.57;10.57;;;;;;;22.07;66.27;101305.41;5092117;28;20020;-48
2023/06/09 08:27:15;;;;;;;17.58;10.80;;;;;;;22.32;66.69;101298.16;5092892;28;20063;-45
2023/06/09 08:29:41;;;;;;;16.48;11.20;;;;;;;22.44;63.70;101298.88;5093078;28;20541;-49
2023/06/09 08:32:06;;;;;;;17.38;10.98;;;;;;;22.53;62.39;101301.41;5092762;28;20026;-49
2023/06/09 08:34:32;;;;;;;18.27;10.63;;;;;;;22.61;62.15;101293.44;5092785;28;20020;-48
2023/06/09 08:36:57;;;;;;;17.08;10.05;;;;;;;22.77;63.50;101294.09;5092709;28;20020;-49
2023/06/09 08:39:23;;;;;;;19.55;11.90;;;;;;;22.84;61.68;101298.38;5092437;28;20525;-44
2023/06/09 08:41:52;;;;;;;18.58;10.98;;;;;;;23.05;64.10;101304.19;5093080;28;20028;-49
2023/06/09 08:44:19;;;;;;;17.60;10.73;;;;;;;23.16;61.10;101294.41;5092652;28;20031;-50
2023/06/09 08:46:48;;;;;;;14.52;11.30;;;;;;;23.22;59.38;101302.19;5092551;28;20024;-48
2023/06/09 08:49:14;;;;;;;16.38;11.07;;;;;;;23.28;57.57;101298.59;5092916;28;20096;-50
2023/06/09 08:51:40;;;;;;;15.48;10.40;;;;;;;23.46;58.16;101300.94;5091728;28;20551;-49
2023/06/09 08:54:06;;;;;;;14.82;10.27;;;;;;;23.59;57.15;101295.44;5093049;28;20027;-45
2023/06/09 08:56:32;;;;;;;17.48;10.15;;;;;;;23.67;54.87;101299.69;5092565;28;20063;-49
2023/06/09 08:58:58;;;;;;;14.82;10.40;;;;;;;23.73;54.47;101293.47;5092258;28;20020;-49
2023/06/09 09:01:23;;;;;;;18.77;10.15;;;;;;;23.81;54.46;101291.53;5092529;28;20027;-49
2023/06/09 09:03:49;;;;;;;14.23;9.55;;;;;;;23.95;54.18;101293.94;5092389;28;20032;-50
2023/06/09 09:06:15;;;;;;;17.63;10.00;;;;;;;24.22;55.30;101301.31;5092151;28;20031;-48
2023/06/09 09:08:41;;;;;;;12.55;10.20;;;;;;;24.38;55.64;101296.63;5092716;28;20055;-48
2023/06/09 09:11:06;;;;;;;13.10;10.20;;;;;;;24.40;53.35;101284.28;5092619;28;20421;-46
2023/06/09 09:13:31;;;;;;;14.45;10.23;;;;;;;24.68;54.23;101294.25;5091728;28;20028;-49
2023/06/09 09:16:01;;;;;;;13.80;10.20;;;;;;;24.78;52.57;101293.16;5092654;28;20073;-45
2023/06/09 09:18:36;;;;;;;15.70;10.20;;;;;;;24.95;53.33;101288.34;5091977;28;20028;-50
2023/06/09 09:21:02;;;;;;;16.27;10.23;;;;;;;24.92;52.23;101283.16;5092019;28;20036;-48
2023/06/09 09:23:29;;;;;;;15.05;10.35;;;;;;;25.19;53.06;101290.44;5092525;28;20036;-50
2023/06/09 09:25:54;;;;;;;15.10;10.38;;;;;;;25.38;49.99;101275.03;5092352;28;20423;-48
2023/06/09 09:28:20;;;;;;;16.75;9.35;;;;;;;25.54;50.58;101286.06;5091778;28;20511;-48
2023/06/09 09:30:50;;;;;;;13.85;9.18;;;;;;;25.52;47.77;101282.63;5092548;28;20403;-49
2023/06/09 09:33:24;;;;;;;15.20;10.70;;;;;;;25.63;51.55;101277.94;5092236;28;20020;-46
2023/06/09 09:35:54;;;;;;;15.77;11.07;;;;;;;25.76;49.76;101275.81;5092750;28;20016;-49
2023/06/09 09:38:24;;;;;;;18.83;11.52;;;;;;;25.74;49.10;101273.19;5096002;28;20490;-50
2023/06/09 09:40:51;;;;;;;14.27;9.82;;;;;;;25.77;46.91;101269.59;5095733;28;20019;-48
2023/06/09 09:43:17;;;;;;;;;;;;;;;26.04;50.23;101275.03;5096446;28;20438;-46
2023/06/09 09:45:45;;;;;;;18.85;9.48;;;;;;;26.51;46.79;101266.66;5096023;28;19965;-49
2023/06/09 09:48:15;;;;;;;13.75;9.45;;;;;;;26.82;45.50;101266.59;5095765;28;20107;-50
2023/06/09 09:50:42;;;;;;;13.68;9.32;;;;;;;26.90;44.08;101272.50;5096229;28;20478;-49
2023/06/09 09:53:08;;;;;;;11.77;9.10;;;;;;;27.00;42.79;101266.91;5095777;28;20468;-46
2023/06/09 09:55:35;;;;;;;12.63;9.48;;;;;;;27.14;43.56;101269.09;5095305;28;20031;-50
2023/06/09 09:58:04;;;;;;;15.80;9.45;;;;;;;27.42;41.55;101263.78;5095879;28;20024;-48
2023/06/09 10:00:30;;;;;;;16.65;9.00;;;;;;;27.50;42.54;101261.75;5095511;28;20020;-46
2023/06/09 10:03:00;;;;;;;18.55;8.60;;;;;;;27.68;43.09;101264.66;5095434;28;20089;-50
2023/06/09 10:05:29;;;;;;;17.38;8.27;;;;;;;28.12;42.52;101270.16;5095754;28;20356;-47
2023/06/09 10:07:57;;;;;;;18.67;9.35;;;;;;;28.29;40.45;101272.16;5095648;28;20027;-47
2023/06/09 10:10:26;;;;;;;14.40;9.55;;;;;;;28.01;40.39;101264.34;5094897;28;20070;-49
2023/06/09 10:12:52;;;;;;;15.45;7.63;;;;;;;29.34;39.02;101267.16;5095844;28;20016;-50
2023/06/09 10:15:19;;;;;;;15.13;9.50;;;;;;;29.76;37.92;101266.22;5095087;28;20027;-50
2023/06/09 10:17:45;;;;;;;13.50;8.43;;;;;;;30.32;36.51;101258.41;5095147;28;20047;-49
2023/06/09 10:20:10;;;;;;;13.00;7.53;;;;;;;30.77;35.91;101259.81;5095355;28;20397;-49
2023/06/09 10:22:36;;;;;;;9.50;7.47;;;;;;;31.17;33.91;101264.97;5094854;28;20467;-48
2023/06/09 10:25:04;;;;;;;10.10;7.18;;;;;;;32.38;32.30;101264.81;5094901;28;20024;-46
2023/06/09 10:27:30;;;;;;;10.80;6.90;;;;;;;32.63;30.76;101258.97;5095254;28;20024;-48
2023/06/09 10:29:55;;;;;;;10.37;6.70;;;;;;;33.55;29.14;101264.38;5094917;28;20040;-44
2023/06/09 10:32:26;;;;;;;9.73;6.38;;;;;;;34.16;28.26;101264.19;5094881;28;20460;-48
2023/06/09 10:34:53;;;;;;;14.30;6.55;;;;;;;33.86;28.42;101255.34;5095096;28;20021;-46
2023/06/09 10:37:32;;;;;;;9.15;6.35;;;;;;;33.27;30.38;101252.69;5094392;28;20055;-46
2023/06/09 10:40:31;;;;;;;10.57;5.90;;;;;;;34.08;30.89;101254.00;5095086;28;20024;-47
2023/06/09 10:43:02;;;;;;;10.70;6.38;;;;;;;34.91;27.69;101245.97;5094380;28;20044;-45
2023/06/09 10:45:49;;;;;;;10.45;5.50;;;;;;;35.18;28.36;101252.22;5094132;28;20496;-48
2023/06/09 10:48:45;;;;;;;8.98;5.75;;;;;;;35.50;27.11;101239.28;5094170;28;20024;-46
2023/06/09 10:51:26;;;;;;;9.48;5.65;;;;;;;35.91;27.06;101240.03;5094360;28;20374;-46
2023/06/09 10:54:09;;;;;;;9.73;5.50;;;;;;;36.12;26.69;101244.81;5094990;28;20028;-47
2023/06/09 10:56:53;;;;;;;9.43;6.18;;;;;;;35.69;27.34;101237.97;5094133;28;20388;-46
2023/06/09 10:59:25;;;;;;;11.27;5.85;;;;;;;36.46;25.67;101242.38;5094138;28;20024;-46
2023/06/09 11:02:00;;;;;;;11.00;5.60;;;;;;;36.45;25.04;101229.91;5094727;28;20563;-47
2023/06/09 11:04:37;;;;;;;8.18;4.80;;;;;;;36.82;25.94;101225.31;5093976;28;20468;-47
2023/06/09 11:07:10;;;;;;;9.43;5.45;;;;;;;36.90;24.37;101232.81;5094089;28;20028;-47
2023/06/09 11:09:36;;;;;;;12.35;5.80;;;;;;;36.83;22.69;101228.88;5094283;28;20547;-47
2023/06/09 11:12:01;;;;;;;8.88;5.35;;;;;;;36.97;22.79;101230.53;5094279;28;20535;-48
2023/06/09 11:14:45;;;;;;;8.10;4.37;;;;;;;37.61;24.50;101229.16;5093847;28;20116;-45